createdAt,value
2022-10-25T00:01:36.557Z,98797.47
2022-10-25T00:04:03.759Z,98805.72
2022-10-25T00:06:30.484Z,98806.34
2022-10-25T00:08:57.301Z,98786.59
2022-10-25T00:11:27.146Z,98797.31
2022-10-25T00:13:55.694Z,98791.34
2022-10-25T00:16:25.383Z,98798.28
2022-10-25T00:18:52.563Z,98792.50
2022-10-25T00:21:20.276Z,98794.97
2022-10-25T00:23:47.709Z,98789.19
2022-10-25T00:26:14.473Z,98792.16
2022-10-25T00:28:41.535Z,98789.00
2022-10-25T00:31:11.126Z,98785.00
2022-10-25T00:33:38.935Z,98788.72
2022-10-25T00:36:14.519Z,98801.63
2022-10-25T00:38:41.708Z,98791.34
2022-10-25T00:41:09.620Z,98801.72
2022-10-25T00:43:39.476Z,98801.69
2022-10-25T00:46:38.826Z,98804.13
2022-10-25T00:49:13.535Z,98808.25
2022-10-25T00:51:47.724Z,98803.81
2022-10-25T00:54:15.810Z,98812.75
2022-10-25T00:56:44.601Z,98811.91
2022-10-25T00:59:15.264Z,98816.72
2022-10-25T01:01:42.311Z,98819.84
2022-10-25T01:04:12.110Z,98811.13
2022-10-25T01:06:44.357Z,98813.59
2022-10-25T01:09:13.341Z,98820.69
2022-10-25T01:11:40.103Z,98810.00
2022-10-25T01:14:08.364Z,98821.75
2022-10-25T01:16:43.947Z,98820.44
2022-10-25T01:19:36.669Z,98818.16
2022-10-25T01:22:12.383Z,98811.56
2022-10-25T01:24:51.012Z,98815.34
2022-10-25T01:27:51.015Z,98805.44
2022-10-25T01:30:22.603Z,98808.28
2022-10-25T01:33:31.139Z,98807.28
2022-10-25T01:36:07.665Z,98811.81
2022-10-25T01:38:49.336Z,98803.53
2022-10-25T01:41:25.135Z,98799.06
2022-10-25T01:44:12.509Z,98799.41
2022-10-25T01:46:46.956Z,98789.50
2022-10-25T01:49:28.607Z,98799.72
2022-10-25T01:51:55.438Z,98794.81
2022-10-25T01:54:25.420Z,98799.56
2022-10-25T01:57:24.623Z,98803.56
2022-10-25T02:00:11.235Z,98802.41
2022-10-25T02:02:54.904Z,98798.78
2022-10-25T02:05:32.475Z,98799.94
2022-10-25T02:08:26.696Z,98806.72
2022-10-25T02:11:06.930Z,98805.06
2022-10-25T02:13:58.714Z,98803.75
2022-10-25T02:16:28.692Z,98800.44
2022-10-25T02:19:00.148Z,98812.28
2022-10-25T02:21:31.977Z,98809.19
2022-10-25T02:24:00.542Z,98816.75
2022-10-25T02:26:27.858Z,98814.78
2022-10-25T02:28:55.025Z,98810.16
2022-10-25T02:31:22.624Z,98824.84
2022-10-25T02:33:49.532Z,98821.38
2022-10-25T02:36:21.476Z,98816.78
2022-10-25T02:38:49.819Z,98823.22
2022-10-25T02:41:17.258Z,98826.66
2022-10-25T02:43:44.033Z,98829.31
2022-10-25T02:46:14.450Z,98833.56
2022-10-25T02:48:41.698Z,98835.25
2022-10-25T02:51:09.101Z,98834.91
2022-10-25T02:53:36.565Z,98839.34
2022-10-25T02:56:06.062Z,98843.31
2022-10-25T02:58:36.148Z,98839.69
2022-10-25T03:01:03.694Z,98838.38
2022-10-25T03:03:30.699Z,98845.94
2022-10-25T03:05:57.860Z,98837.38
2022-10-25T03:08:24.964Z,98852.53
2022-10-25T03:10:52.123Z,98843.81
2022-10-25T03:13:19.046Z,98850.91
2022-10-25T03:15:46.188Z,98852.06
2022-10-25T03:18:14.261Z,98845.94
2022-10-25T03:20:41.886Z,98848.91
2022-10-25T03:23:08.625Z,98864.59
2022-10-25T03:25:35.398Z,98857.50
2022-10-25T03:28:02.195Z,98865.06
2022-10-25T03:30:30.469Z,98864.59
2022-10-25T03:32:58.332Z,98872.03
2022-10-25T03:35:25.300Z,98867.75
2022-10-25T03:37:52.522Z,98873.84
2022-10-25T03:40:19.843Z,98879.94
2022-10-25T03:42:46.766Z,98879.94
2022-10-25T03:45:13.655Z,98879.28
2022-10-25T03:47:40.652Z,98882.72
2022-10-25T03:50:08.073Z,98889.19
2022-10-25T03:52:35.402Z,98890.66
2022-10-25T03:55:02.274Z,98889.31
2022-10-25T03:57:29.036Z,98894.78
2022-10-25T03:59:55.839Z,98894.63
2022-10-25T04:02:22.558Z,98891.63
2022-10-25T04:04:49.263Z,98896.09
2022-10-25T04:07:15.986Z,98893.13
2022-10-25T04:09:43.069Z,98893.44
2022-10-25T04:12:09.766Z,98898.56
2022-10-25T04:14:36.594Z,98908.00
2022-10-25T04:17:03.485Z,98903.38
2022-10-25T04:19:30.159Z,98908.16
2022-10-25T04:21:57.425Z,98899.06
2022-10-25T04:24:24.163Z,98907.31
2022-10-25T04:26:50.911Z,98900.41
2022-10-25T04:29:17.661Z,98902.06
2022-10-25T04:31:44.380Z,98905.19
2022-10-25T04:34:11.104Z,98905.19
2022-10-25T04:36:39.426Z,98902.22
2022-10-25T04:39:06.475Z,98906.50
2022-10-25T04:41:33.255Z,98903.69
2022-10-25T04:44:00.036Z,98912.25
2022-10-25T04:46:26.992Z,98908.00
2022-10-25T04:48:53.758Z,98905.50
2022-10-25T04:51:20.468Z,98907.50
2022-10-25T04:53:47.212Z,98901.38
2022-10-25T04:56:17.266Z,98908.31
2022-10-25T04:58:43.972Z,98905.00
2022-10-25T05:01:13.500Z,98914.75
2022-10-25T05:03:41.217Z,98908.81
2022-10-25T05:06:13.600Z,98910.63
2022-10-25T05:08:41.436Z,98916.25
2022-10-25T05:11:09.352Z,98918.22
2022-10-25T05:13:37.476Z,98912.78
2022-10-25T05:16:05.003Z,98914.56
2022-10-25T05:18:33.328Z,98916.56
2022-10-25T05:21:04.878Z,98917.72
2022-10-25T05:23:33.600Z,98925.47
2022-10-25T05:26:15.725Z,98920.50
2022-10-25T05:28:43.983Z,98922.66
2022-10-25T05:31:16.847Z,98923.16
2022-10-25T05:33:45.763Z,98925.47
2022-10-25T05:36:14.365Z,98930.75
2022-10-25T05:38:42.029Z,98928.44
2022-10-25T05:41:10.965Z,98934.03
2022-10-25T05:43:37.812Z,98939.66
2022-10-25T05:46:10.790Z,98935.34
2022-10-25T05:48:37.853Z,98942.28
2022-10-25T05:51:28.677Z,98930.91
2022-10-25T05:53:58.407Z,98938.00
2022-10-25T05:56:27.427Z,98943.91
2022-10-25T05:58:54.291Z,98953.47
2022-10-25T06:01:22.464Z,98955.16
2022-10-25T06:03:53.178Z,98948.84
2022-10-25T06:06:20.377Z,98957.97
2022-10-25T06:08:47.813Z,98954.94
2022-10-25T06:11:17.425Z,98959.41
2022-10-25T06:13:44.365Z,98962.69
2022-10-25T06:16:13.842Z,98962.69
2022-10-25T06:18:40.555Z,98966.50
2022-10-25T06:21:09.773Z,98964.34
2022-10-25T06:23:37.409Z,98963.53
2022-10-25T06:26:06.722Z,98970.81
2022-10-25T06:28:34.073Z,98978.41
2022-10-25T06:31:08.765Z,98986.84
2022-10-25T06:33:35.689Z,98986.16
2022-10-25T06:36:04.233Z,98993.91
2022-10-25T06:38:31.638Z,98994.91
2022-10-25T06:41:02.859Z,99003.00
2022-10-25T06:43:30.440Z,99006.00
2022-10-25T06:45:57.258Z,99004.00
2022-10-25T06:48:24.480Z,99012.75
2022-10-25T06:51:01.954Z,99018.34
2022-10-25T06:53:28.790Z,99024.47
2022-10-25T06:56:04.290Z,99029.25
2022-10-25T06:58:33.609Z,99027.44
2022-10-25T07:01:08.033Z,99033.03
2022-10-25T07:03:37.788Z,99042.31
2022-10-25T07:06:06.981Z,99042.59
2022-10-25T07:08:37.938Z,99048.38
2022-10-25T07:11:05.448Z,99046.28
2022-10-25T07:13:33.082Z,99052.91
2022-10-25T07:16:08.309Z,99054.84
2022-10-25T07:18:36.488Z,99060.84
2022-10-25T07:21:05.666Z,99053.59
2022-10-25T07:23:32.608Z,99045.50
2022-10-25T07:25:59.775Z,99047.69
2022-10-25T07:28:27.500Z,99051.31
2022-10-25T07:30:54.372Z,99052.13
2022-10-25T07:33:21.225Z,99059.06
2022-10-25T07:36:05.810Z,99058.91
2022-10-25T07:38:33.523Z,99051.00
2022-10-25T07:41:00.443Z,99058.25
2022-10-25T07:43:27.285Z,99067.50
2022-10-25T07:45:54.372Z,99067.19
2022-10-25T07:48:21.536Z,99066.34
2022-10-25T07:50:48.360Z,99066.50
2022-10-25T07:53:15.363Z,99073.75
2022-10-25T07:55:42.055Z,99067.50
2022-10-25T07:58:10.647Z,99077.09
2022-10-25T08:00:37.732Z,99073.44
2022-10-25T08:03:04.841Z,99066.84
2022-10-25T08:05:31.667Z,99056.28
2022-10-25T08:07:58.366Z,99069.31
2022-10-25T08:10:25.160Z,99071.81
2022-10-25T08:12:51.886Z,99074.44
2022-10-25T08:15:18.680Z,99080.06
2022-10-25T08:17:45.729Z,99071.13
2022-10-25T08:20:12.810Z,99070.31
2022-10-25T08:22:39.636Z,99078.41
2022-10-25T08:25:07.163Z,99082.03
2022-10-25T08:27:33.908Z,99081.41
2022-10-25T08:30:00.734Z,99079.22
2022-10-25T08:32:28.727Z,99084.34
2022-10-25T08:34:55.435Z,99095.94
2022-10-25T08:37:22.182Z,99093.75
2022-10-25T08:39:52.195Z,99091.63
2022-10-25T08:42:36.868Z,99100.19
2022-10-25T08:45:30.034Z,99101.06
2022-10-25T08:47:57.279Z,99097.38
2022-10-25T08:50:31.493Z,99097.38
2022-10-25T08:52:59.478Z,99091.63
2022-10-25T08:56:05.133Z,99093.28
2022-10-25T08:58:36.239Z,99098.88
2022-10-25T09:01:16.914Z,99099.22
2022-10-25T09:03:44.030Z,99089.59
2022-10-25T09:06:33.568Z,99099.88
2022-10-25T09:09:25.467Z,99104.31
2022-10-25T09:12:06.318Z,99103.59
2022-10-25T09:14:54.209Z,99110.59
2022-10-25T09:17:30.103Z,99104.75
2022-10-25T09:20:37.334Z,99124.59
2022-10-25T09:23:12.911Z,99118.78
2022-10-25T09:26:07.826Z,99123.00
2022-10-25T09:28:51.624Z,99135.72
2022-10-25T09:31:22.610Z,99135.22
2022-10-25T09:33:53.684Z,99136.09
2022-10-25T09:36:21.037Z,99131.09
2022-10-25T09:38:52.490Z,99131.44
2022-10-25T09:41:39.978Z,99120.38
2022-10-25T09:44:18.161Z,99125.72
2022-10-25T09:46:57.284Z,99132.69
2022-10-25T09:50:04.321Z,99125.50
2022-10-25T09:52:56.482Z,99119.59
2022-10-25T09:55:54.246Z,99125.13
2022-10-25T09:58:26.246Z,99129.03
2022-10-25T10:00:55.468Z,99131.34
2022-10-25T10:03:23.383Z,99136.81
2022-10-25T10:05:57.311Z,99129.50
2022-10-25T10:08:24.993Z,99127.94
2022-10-25T10:10:52.985Z,99128.06
2022-10-25T10:13:47.243Z,99126.22
2022-10-25T10:16:23.837Z,99128.06
2022-10-25T10:18:50.655Z,99129.50
2022-10-25T10:21:20.602Z,99136.31
2022-10-25T10:23:52.803Z,99123.38
2022-10-25T10:26:29.483Z,99135.41
2022-10-25T10:29:16.705Z,99121.22
2022-10-25T10:31:47.896Z,99122.81
2022-10-25T10:34:39.336Z,99123.88
2022-10-25T10:37:23.332Z,99125.84
2022-10-25T10:40:01.291Z,99122.41
2022-10-25T10:42:35.939Z,99126.38
2022-10-25T10:45:22.995Z,99140.09
2022-10-25T10:47:50.101Z,99136.00
2022-10-25T10:50:28.979Z,99137.03
2022-10-25T10:53:06.974Z,99122.88
2022-10-25T10:55:39.599Z,99133.69
2022-10-25T10:58:22.520Z,99142.22
2022-10-25T11:01:07.941Z,99132.91
2022-10-25T11:04:01.425Z,99142.50
2022-10-25T11:06:33.221Z,99142.47
2022-10-25T11:09:18.109Z,99142.78
2022-10-25T11:11:45.771Z,99145.59
2022-10-25T11:14:17.309Z,99142.53
2022-10-25T11:17:01.167Z,99148.09
2022-10-25T11:19:58.745Z,99153.28
2022-10-25T11:23:24.203Z,99148.69
2022-10-25T11:26:09.736Z,99145.75
2022-10-25T11:29:21.945Z,99151.50
2022-10-25T11:32:06.403Z,99151.41
2022-10-25T11:35:22.030Z,99158.00
2022-10-25T11:38:11.667Z,99157.56
2022-10-25T11:40:46.591Z,99156.59
2022-10-25T11:43:31.541Z,99157.25
2022-10-25T11:46:08.672Z,99159.69
2022-10-25T11:48:53.826Z,99161.31
2022-10-25T11:52:19.253Z,99166.50
2022-10-25T11:54:58.659Z,99162.19
2022-10-25T12:01:00.381Z,99162.22
2022-10-25T12:04:29.869Z,99170.06
2022-10-25T12:07:30.245Z,99176.69
2022-10-25T12:10:21.752Z,99169.19
2022-10-25T12:12:51.308Z,99167.53
2022-10-25T12:15:24.800Z,99166.56
2022-10-25T12:17:52.696Z,99166.41
2022-10-25T12:20:25.204Z,99169.50
2022-10-25T12:22:54.713Z,99174.50
2022-10-25T12:25:28.364Z,99177.25
2022-10-25T12:28:10.654Z,99175.34
2022-10-25T12:30:39.172Z,99177.91
2022-10-25T12:33:28.625Z,99176.09
2022-10-25T12:35:59.937Z,99173.78
2022-10-25T12:38:37.842Z,99172.72
2022-10-25T12:41:13.731Z,99163.03
2022-10-25T12:44:10.705Z,99169.91
2022-10-25T12:47:01.161Z,99163.34
2022-10-25T12:50:00.369Z,99158.63
2022-10-25T12:52:35.784Z,99171.38
2022-10-25T12:55:23.349Z,99164.94
2022-10-25T12:58:08.705Z,99165.56
2022-10-25T13:00:47.494Z,99168.94
2022-10-25T13:03:52.930Z,99162.22
2022-10-25T13:06:40.557Z,99170.81
2022-10-25T13:09:13.062Z,99165.41
2022-10-25T13:11:43.586Z,99155.72
2022-10-25T13:14:27.477Z,99153.25
2022-10-25T13:17:37.668Z,99148.66
2022-10-25T13:20:28.234Z,99150.47
2022-10-25T13:22:55.066Z,99139.13
2022-10-25T13:25:50.983Z,99151.59
2022-10-25T13:28:25.497Z,99155.88
2022-10-25T13:31:30.883Z,99160.25
2022-10-25T13:34:27.574Z,99157.59
2022-10-25T13:36:59.137Z,99151.22
2022-10-25T13:39:45.142Z,99154.25
2022-10-25T13:42:38.278Z,99153.88
2022-10-25T13:45:08.568Z,99153.81
2022-10-25T13:47:47.444Z,99155.72
2022-10-25T13:50:41.341Z,99162.97
2022-10-25T13:53:23.718Z,99153.25
2022-10-25T13:56:05.994Z,99164.50
2022-10-25T13:58:45.323Z,99159.84
2022-10-25T14:01:55.815Z,99154.31
2022-10-25T14:04:34.244Z,99161.66
2022-10-25T14:07:52.332Z,99162.69
2022-10-25T14:10:23.422Z,99160.03
2022-10-25T14:12:53.694Z,99162.41
2022-10-25T14:15:40.493Z,99164.97
2022-10-25T14:18:16.444Z,99164.88
2022-10-25T14:20:46.903Z,99160.19
2022-10-25T14:23:17.922Z,99154.72
2022-10-25T14:25:54.070Z,99155.28
2022-10-25T14:28:31.181Z,99151.44
2022-10-25T14:31:05.355Z,99148.56
2022-10-25T14:33:51.506Z,99159.13
2022-10-25T14:36:44.919Z,99155.06
2022-10-25T14:39:24.235Z,99157.19
2022-10-25T14:41:59.779Z,99157.72
2022-10-25T14:44:29.498Z,99148.03
2022-10-25T14:46:58.300Z,99161.84
2022-10-25T14:49:25.590Z,99168.78
2022-10-25T14:51:55.637Z,99162.28
2022-10-25T14:54:35.452Z,99161.94
2022-10-25T14:57:07.258Z,99155.63
2022-10-25T14:59:45.153Z,99159.97
2022-10-25T15:02:21.811Z,99154.09
2022-10-25T15:04:54.589Z,99151.75
2022-10-25T15:07:23.611Z,99164.38
2022-10-25T15:09:56.795Z,99163.84
2022-10-25T15:12:25.958Z,99154.59
2022-10-25T15:14:54.150Z,99173.34
2022-10-25T15:17:29.561Z,99166.59
2022-10-25T15:20:17.276Z,99172.09
2022-10-25T15:22:47.266Z,99158.00
2022-10-25T15:25:43.706Z,99167.22
2022-10-25T15:28:16.077Z,99162.25
2022-10-25T15:31:13.448Z,99159.88
2022-10-25T15:33:43.108Z,99164.00
2022-10-25T15:36:20.667Z,99162.38
2022-10-25T15:39:07.874Z,99153.09
2022-10-25T15:41:35.701Z,99160.94
2022-10-25T15:44:02.399Z,99158.97
2022-10-25T15:46:33.542Z,99160.84
2022-10-25T15:49:02.723Z,99164.84
2022-10-25T15:51:31.210Z,99163.38
2022-10-25T15:53:58.341Z,99156.56
2022-10-25T15:56:25.116Z,99158.53
2022-10-25T15:58:52.097Z,99164.22
2022-10-25T16:01:19.690Z,99156.53
2022-10-25T16:03:46.620Z,99159.00
2022-10-25T16:06:14.526Z,99160.97
2022-10-25T16:08:42.192Z,99154.66
2022-10-25T16:11:14.680Z,99162.16
2022-10-25T16:13:42.627Z,99159.19
2022-10-25T16:16:38.809Z,99155.78
2022-10-25T16:19:04.176Z,99152.84
2022-10-25T16:21:31.480Z,99147.09
2022-10-25T16:23:58.253Z,99154.41
2022-10-25T16:26:34.883Z,99163.59
2022-10-25T16:29:01.568Z,99161.63
2022-10-25T16:31:28.465Z,99152.03
2022-10-25T16:33:55.559Z,99160.66
2022-10-25T16:36:22.310Z,99162.63
2022-10-25T16:38:50.166Z,99171.94
2022-10-25T16:41:32.108Z,99164.66
2022-10-25T16:43:59.138Z,99169.13
2022-10-25T16:46:26.910Z,99161.72
2022-10-25T16:48:55.870Z,99161.88
2022-10-25T16:51:25.997Z,99160.19
2022-10-25T16:53:52.946Z,99160.38
2022-10-25T16:56:19.621Z,99158.72
2022-10-25T16:58:47.084Z,99164.31
2022-10-25T17:01:21.856Z,99166.91
2022-10-25T17:03:50.090Z,99171.41
2022-10-25T17:06:39.708Z,99170.91
2022-10-25T17:09:05.223Z,99160.59
2022-10-25T17:11:31.981Z,99165.69
2022-10-25T17:13:58.935Z,99164.34
2022-10-25T17:16:25.738Z,99166.81
2022-10-25T17:18:52.563Z,99180.44
2022-10-25T17:21:19.564Z,99178.44
2022-10-25T17:23:46.337Z,99185.03
2022-10-25T17:26:13.202Z,99185.16
2022-10-25T17:28:43.926Z,99183.81
2022-10-25T17:31:13.067Z,99182.16
2022-10-25T17:33:40.850Z,99176.59
2022-10-25T17:36:21.071Z,99176.00
2022-10-25T17:38:47.812Z,99178.63
2022-10-25T17:41:14.766Z,99170.66
2022-10-25T17:43:42.054Z,99181.69
2022-10-25T17:46:15.403Z,99179.69
2022-10-25T17:48:42.358Z,99188.41
2022-10-25T17:51:11.937Z,99178.88
2022-10-25T17:53:38.903Z,99177.00
2022-10-25T17:56:13.247Z,99182.63
2022-10-25T17:58:43.588Z,99190.03
2022-10-25T18:01:11.691Z,99187.53
2022-10-25T18:03:38.779Z,99180.84
2022-10-25T18:06:10.905Z,99180.41
2022-10-25T18:08:37.859Z,99184.38
2022-10-25T18:11:23.435Z,99180.41
2022-10-25T18:13:55.614Z,99179.38
2022-10-25T18:16:26.018Z,99187.28
2022-10-25T18:18:57.094Z,99190.00
2022-10-25T18:21:24.445Z,99186.91
2022-10-25T18:24:01.353Z,99190.06
2022-10-25T18:26:28.337Z,99197.44
2022-10-25T18:28:55.381Z,99192.25
2022-10-25T18:31:22.677Z,99184.66
2022-10-25T18:33:49.686Z,99187.34
2022-10-25T18:36:19.983Z,99191.56
2022-10-25T18:38:47.241Z,99178.53
2022-10-25T18:41:16.527Z,99175.22
2022-10-25T18:43:43.684Z,99172.88
2022-10-25T18:46:10.564Z,99170.69
2022-10-25T18:48:37.447Z,99168.97
2022-10-25T18:51:05.720Z,99171.59
2022-10-25T18:53:35.540Z,99168.56
2022-10-25T18:56:02.881Z,99168.53
2022-10-25T18:58:32.897Z,99181.00
2022-10-25T19:01:13.257Z,99166.88
2022-10-25T19:03:41.110Z,99171.47
2022-10-25T19:06:08.226Z,99177.66
2022-10-25T19:08:35.777Z,99164.25
2022-10-25T19:11:06.593Z,99155.75
2022-10-25T19:13:33.517Z,99162.97
2022-10-25T19:16:00.430Z,99163.72
2022-10-25T19:18:28.610Z,99163.06
2022-10-25T19:20:55.931Z,99161.00
2022-10-25T19:23:22.661Z,99157.00
2022-10-25T19:25:49.549Z,99159.84
2022-10-25T19:28:16.335Z,99155.50
2022-10-25T19:30:43.075Z,99159.72
2022-10-25T19:33:10.045Z,99168.72
2022-10-25T19:35:36.674Z,99165.22
2022-10-25T19:38:03.426Z,99171.81
2022-10-25T19:40:30.703Z,99164.44
2022-10-25T19:42:57.546Z,99164.91
2022-10-25T19:45:24.618Z,99169.59
2022-10-25T19:47:56.167Z,99163.84
2022-10-25T19:50:24.146Z,99170.38
2022-10-25T19:52:51.442Z,99168.59
2022-10-25T19:55:18.194Z,99176.66
2022-10-25T19:57:45.194Z,99166.41
2022-10-25T20:00:13.655Z,99174.88
2022-10-25T20:02:40.871Z,99164.63
2022-10-25T20:05:08.379Z,99164.63
2022-10-25T20:07:36.520Z,99168.09
2022-10-25T20:10:03.598Z,99163.66
2022-10-25T20:12:30.678Z,99159.69
2022-10-25T20:14:58.109Z,99154.56
2022-10-25T20:17:25.037Z,99163.38
2022-10-25T20:19:52.044Z,99169.63
2022-10-25T20:22:19.530Z,99159.69
2022-10-25T20:24:46.319Z,99171.47
2022-10-25T20:27:13.106Z,99168.00
2022-10-25T20:29:40.300Z,99171.75
2022-10-25T20:32:07.011Z,99169.66
2022-10-25T20:34:35.498Z,99167.16
2022-10-25T20:37:04.006Z,99168.13
2022-10-25T20:39:30.876Z,99166.22
2022-10-25T20:41:58.018Z,99169.56
2022-10-25T20:44:24.986Z,99179.81
2022-10-25T20:46:51.754Z,99174.81
2022-10-25T20:49:18.562Z,99181.03
2022-10-25T20:51:45.958Z,99185.06
2022-10-25T20:54:12.797Z,99185.63
2022-10-25T20:56:39.946Z,99188.53
2022-10-25T20:59:07.039Z,99184.22
2022-10-25T21:01:33.841Z,99180.78
2022-10-25T21:04:00.778Z,99177.31
2022-10-25T21:06:27.515Z,99183.56
2022-10-25T21:08:54.266Z,99175.94
2022-10-25T21:11:21.319Z,99180.91
2022-10-25T21:13:48.341Z,99181.59
2022-10-25T21:16:16.170Z,99185.19
2022-10-25T21:18:43.376Z,99185.59
2022-10-25T21:21:18.055Z,99184.78
2022-10-25T21:23:46.072Z,99185.06
2022-10-25T21:26:12.839Z,99191.13
2022-10-25T21:28:40.496Z,99189.75
2022-10-25T21:31:14.876Z,99183.66
2022-10-25T21:33:49.895Z,99183.50
2022-10-25T21:36:18.745Z,99189.47
2022-10-25T21:38:45.644Z,99182.00
2022-10-25T21:41:15.324Z,99185.31
2022-10-25T21:43:44.288Z,99181.84
2022-10-25T21:46:12.029Z,99186.13
2022-10-25T21:48:38.802Z,99189.28
2022-10-25T21:51:05.687Z,99171.22
2022-10-25T21:53:32.442Z,99171.31
2022-10-25T21:56:07.456Z,99169.69
2022-10-25T21:58:34.566Z,99173.41
2022-10-25T22:01:01.448Z,99176.53
2022-10-25T22:03:30.200Z,99180.28
2022-10-25T22:05:57.681Z,99176.94
2022-10-25T22:08:24.533Z,99176.94
2022-10-25T22:11:02.977Z,99175.00
2022-10-25T22:13:30.045Z,99177.38
2022-10-25T22:16:06.027Z,99176.28
2022-10-25T22:18:33.779Z,99169.63
2022-10-25T22:21:03.144Z,99180.31
2022-10-25T22:23:30.950Z,99182.25
2022-10-25T22:26:07.165Z,99181.06
2022-10-25T22:28:36.807Z,99173.53
2022-10-25T22:31:12.492Z,99175.38
2022-10-25T22:33:39.637Z,99169.25
2022-10-25T22:36:09.203Z,99160.81
2022-10-25T22:38:36.322Z,99168.53
2022-10-25T22:41:06.340Z,99164.56
2022-10-25T22:43:37.011Z,99164.69
2022-10-25T22:46:05.976Z,99167.72
2022-10-25T22:48:34.012Z,99170.66
2022-10-25T22:51:00.760Z,99165.00
2022-10-25T22:53:28.340Z,99164.16
2022-10-25T22:56:00.536Z,99169.25
2022-10-25T22:58:28.883Z,99161.25
2022-10-25T23:01:00.685Z,99165.00
2022-10-25T23:03:27.488Z,99160.19
2022-10-25T23:05:59.020Z,99163.03
2022-10-25T23:08:26.734Z,99157.66
2022-10-25T23:11:01.965Z,99155.03
2022-10-25T23:13:29.866Z,99153.22
2022-10-25T23:15:57.037Z,99155.69
2022-10-25T23:18:24.831Z,99150.88
2022-10-25T23:20:52.632Z,99153.22
2022-10-25T23:23:19.567Z,99146.44
2022-10-25T23:25:46.832Z,99150.94
2022-10-25T23:28:13.808Z,99154.44
2022-10-25T23:30:41.325Z,99156.63
2022-10-25T23:33:08.576Z,99158.13
2022-10-25T23:35:35.257Z,99146.72
2022-10-25T23:38:02.395Z,99154.31
2022-10-25T23:40:31.886Z,99132.84
2022-10-25T23:42:59.018Z,99146.84
2022-10-25T23:45:26.973Z,99148.13
2022-10-25T23:47:54.039Z,99149.84
2022-10-25T23:50:20.839Z,99143.72
2022-10-25T23:52:48.368Z,99149.28
2022-10-25T23:55:16.506Z,99139.38
2022-10-25T23:57:43.277Z,99145.81
